Time;durP1;ratioP1;P1;durP2;ratioP2;P2;SDS_P1;SDS_P2;PMS_P1;PMS_P2;Temp;Humidity;BMP_temperature;BMP_pressure;BME280_temperature;BME280_humidity;BME280_pressure;Samples;Min_cycle;Max_cycle;Signal;HPM_P1;HPM_P2
2024/04/08 00:00:48;;;;;;;4.28;2.22;;;22.60;99.90;;;;;;5020913;28;20030;-70
2024/04/08 00:03:15;;;;;;;6.38;2.92;;;22.70;99.90;;;;;;5022691;28;20423;-69
2024/04/08 00:05:42;;;;;;;3.42;1.85;;;22.70;99.90;;;;;;5021438;28;20172;-68
2024/04/08 00:08:10;;;;;;;2.50;1.77;;;22.70;99.90;;;;;;5021536;28;20032;-68
2024/04/08 00:10:37;;;;;;;2.17;1.40;;;22.80;99.90;;;;;;5030565;28;20025;-68
2024/04/08 00:13:05;;;;;;;2.30;1.45;;;22.70;99.90;;;;;;5022018;28;20025;-68
2024/04/08 00:15:32;;;;;;;4.63;1.35;;;22.60;99.90;;;;;;5015412;28;20658;-69
2024/04/08 00:18:00;;;;;;;2.95;1.40;;;22.60;99.90;;;;;;5021985;28;20029;-69
2024/04/08 00:20:27;;;;;;;2.85;1.08;;;22.60;99.90;;;;;;5025902;28;20061;-68
2024/04/08 00:22:54;;;;;;;2.33;1.60;;;22.60;99.90;;;;;;5020634;28;20056;-68
2024/04/08 00:25:22;;;;;;;2.38;1.60;;;22.70;99.90;;;;;;5020780;28;20141;-70
2024/04/08 00:27:49;;;;;;;3.40;1.48;;;22.70;99.90;;;;;;5021501;28;20486;-69
2024/04/08 00:30:16;;;;;;;2.95;1.98;;;22.80;99.90;;;;;;5021536;28;20033;-68
2024/04/08 00:32:43;;;;;;;3.47;1.70;;;22.70;99.90;;;;;;5026017;28;20032;-71
2024/04/08 00:35:10;;;;;;;1.67;1.45;;;22.80;99.90;;;;;;5024746;28;20036;-69
2024/04/08 00:37:38;;;;;;;3.05;1.20;;;22.80;99.90;;;;;;5025167;28;20025;-68
2024/04/08 00:40:06;;;;;;;3.42;1.75;;;22.90;99.90;;;;;;5026109;28;20029;-68
2024/04/08 00:42:34;;;;;;;5.90;1.50;;;22.90;99.90;;;;;;5025544;28;20032;-68
2024/04/08 00:45:01;;;;;;;2.38;1.40;;;22.80;99.90;;;;;;5025582;28;20006;-68
2024/04/08 00:47:29;;;;;;;3.97;1.75;;;22.90;99.90;;;;;;5025377;28;20029;-68
2024/04/08 00:49:56;;;;;;;2.85;2.15;;;23.00;99.90;;;;;;5024259;28;20087;-69
2024/04/08 00:52:23;;;;;;;3.55;1.50;;;23.00;99.90;;;;;;5028135;28;20057;-68
2024/04/08 00:54:51;;;;;;;3.85;1.83;;;23.20;99.90;;;;;;5028067;28;20120;-68
2024/04/08 00:57:20;;;;;;;3.28;1.67;;;23.30;99.90;;;;;;5026099;28;20048;-69
2024/04/08 00:59:47;;;;;;;2.55;1.35;;;23.40;99.90;;;;;;5029236;28;20025;-69
2024/04/08 01:02:14;;;;;;;1.67;1.35;;;23.50;99.90;;;;;;5027097;28;20033;-70
2024/04/08 01:04:42;;;;;;;3.88;2.70;;;23.70;99.90;;;;;;5025504;28;20021;-68
2024/04/08 01:07:09;;;;;;;3.72;1.40;;;23.80;99.90;;;;;;5030941;28;20033;-69
2024/04/08 01:09:36;;;;;;;4.57;1.85;;;24.00;99.90;;;;;;5040240;28;20036;-69
2024/04/08 01:12:04;;;;;;;3.00;1.55;;;24.20;99.90;;;;;;5043255;28;20021;-69
2024/04/08 01:14:32;;;;;;;2.42;2.05;;;24.30;99.90;;;;;;5044748;28;20017;-69
2024/04/08 01:16:59;;;;;;;3.08;1.40;;;24.60;99.90;;;;;;5034546;28;20115;-70
2024/04/08 01:19:26;;;;;;;3.92;1.80;;;24.80;99.90;;;;;;5028235;28;20117;-69
2024/04/08 01:21:54;;;;;;;4.03;1.38;;;24.90;99.90;;;;;;5025129;28;20040;-68
2024/04/08 01:24:21;;;;;;;3.50;1.42;;;25.10;99.90;;;;;;5032027;28;20041;-68
2024/04/08 01:26:49;;;;;;;3.15;1.48;;;25.30;99.90;;;;;;5026536;28;20033;-68
2024/04/08 01:29:16;;;;;;;2.53;1.30;;;25.50;99.90;;;;;;5032430;28;20474;-68
2024/04/08 01:31:43;;;;;;;3.85;1.60;;;25.50;99.90;;;;;;5031377;28;20029;-68
2024/04/08 01:34:10;;;;;;;4.47;1.40;;;25.60;99.90;;;;;;5029873;28;20018;-69
2024/04/08 01:36:38;;;;;;;2.55;1.50;;;25.70;99.90;;;;;;5033362;28;20548;-70
2024/04/08 01:39:05;;;;;;;4.93;1.80;;;25.70;99.90;;;;;;5039987;28;20030;-68
2024/04/08 01:41:32;;;;;;;4.13;1.40;;;25.60;99.90;;;;;;5031284;28;20028;-69
2024/04/08 01:43:59;;;;;;;4.38;1.40;;;25.60;99.90;;;;;;5029015;28;20124;-68
2024/04/08 01:46:27;;;;;;;5.72;2.03;;;25.70;99.90;;;;;;5032958;28;20098;-69
2024/04/08 01:48:54;;;;;;;4.32;1.80;;;25.70;99.90;;;;;;5038693;28;20060;-70
2024/04/08 01:51:21;;;;;;;4.18;1.70;;;25.80;99.90;;;;;;5024689;28;20355;-70
2024/04/08 01:53:49;;;;;;;7.75;2.53;;;25.90;99.90;;;;;;5024528;28;20522;-70
2024/04/08 01:56:16;;;;;;;6.32;1.83;;;25.90;99.90;;;;;;5025112;28;20033;-71
2024/04/08 01:58:44;;;;;;;2.97;1.30;;;26.10;99.90;;;;;;5025725;28;20021;-69
2024/04/08 02:01:11;;;;;;;6.32;1.95;;;26.20;99.90;;;;;;5040405;28;20032;-71
2024/04/08 02:03:38;;;;;;;5.10;2.83;;;26.50;99.90;;;;;;5022578;28;20022;-70
2024/04/08 02:06:06;;;;;;;7.45;1.98;;;26.70;99.90;;;;;;5024937;28;20108;-70
2024/04/08 02:08:33;;;;;;;7.05;1.60;;;26.90;99.90;;;;;;5024465;28;20091;-68
2024/04/08 02:11:00;;;;;;;5.80;2.00;;;27.20;99.90;;;;;;5033744;28;20033;-69
2024/04/08 02:13:27;;;;;;;4.43;1.77;;;27.30;99.90;;;;;;5043889;28;20029;-69
2024/04/08 02:15:54;;;;;;;5.00;1.90;;;27.10;99.90;;;;;;5041435;28;20021;-70
2024/04/08 02:18:22;;;;;;;7.13;2.17;;;26.90;99.90;;;;;;5042644;28;20424;-70
2024/04/08 02:20:49;;;;;;;5.97;1.90;;;26.80;99.90;;;;;;5042734;28;20469;-69
2024/04/08 02:23:16;;;;;;;3.88;1.38;;;26.70;99.90;;;;;;5044354;28;20052;-69
2024/04/08 02:25:43;;;;;;;5.38;1.83;;;26.50;99.90;;;;;;5043039;28;20025;-68
2024/04/08 02:28:11;;;;;;;6.68;2.00;;;26.60;99.90;;;;;;5044209;28;20478;-69
2024/04/08 02:30:39;;;;;;;5.53;1.80;;;26.60;99.90;;;;;;5043067;28;20032;-70
2024/04/08 02:33:06;;;;;;;7.18;1.50;;;26.80;99.90;;;;;;5043456;28;20036;-70
2024/04/08 02:35:37;;;;;;;8.50;1.77;;;27.00;99.90;;;;;;5043150;28;20024;-70
2024/04/08 02:38:05;;;;;;;3.95;1.50;;;27.00;99.90;;;;;;5044145;28;20036;-70
2024/04/08 02:40:33;;;;;;;5.82;1.88;;;26.90;99.90;;;;;;5043279;28;20032;-70
2024/04/08 02:43:01;;;;;;;8.52;1.92;;;27.40;99.90;;;;;;5043861;28;20025;-71
2024/04/08 02:45:28;;;;;;;4.28;1.90;;;27.80;99.90;;;;;;5043693;28;20036;-70
2024/04/08 02:47:58;;;;;;;4.93;1.75;;;28.50;98.50;;;;;;5044701;28;20021;-69
2024/04/08 02:50:25;;;;;;;4.85;1.63;;;29.10;97.60;;;;;;5044544;28;20032;-70
2024/04/08 02:52:53;;;;;;;4.68;1.80;;;29.90;97.10;;;;;;5043691;28;20071;-71
2024/04/08 02:55:20;;;;;;;6.47;1.70;;;30.90;95.20;;;;;;5044286;28;20025;-70
2024/04/08 02:57:49;;;;;;;10.52;3.00;;;32.30;93.00;;;;;;5043873;28;20445;-70
2024/04/08 03:00:16;;;;;;;6.38;1.65;;;33.40;91.00;;;;;;5044164;28;20032;-68
2024/04/08 03:02:47;;;;;;;4.93;1.90;;;33.10;89.30;;;;;;5043303;28;20021;-70
2024/04/08 03:05:15;;;;;;;7.57;2.00;;;31.90;90.90;;;;;;5044261;28;20032;-70
2024/04/08 03:07:42;;;;;;;5.60;2.03;;;31.30;91.70;;;;;;5043306;28;20029;-71
2024/04/08 03:10:09;;;;;;;4.40;2.22;;;30.70;93.30;;;;;;5044031;28;20052;-69
2024/04/08 03:12:36;;;;;;;9.23;2.08;;;30.90;92.40;;;;;;5042971;28;20017;-70
2024/04/08 03:15:04;;;;;;;6.60;1.50;;;31.80;91.50;;;;;;5043587;28;20270;-70
2024/04/08 03:17:31;;;;;;;6.20;2.40;;;33.10;90.60;;;;;;5043421;28;20029;-70
2024/04/08 03:19:58;;;;;;;5.90;1.85;;;33.30;86.80;;;;;;5043457;28;20017;-69
2024/04/08 03:22:26;;;;;;;5.13;1.80;;;32.40;88.30;;;;;;5042507;28;20064;-70
2024/04/08 03:24:54;;;;;;;4.68;1.77;;;31.50;90.50;;;;;;5042788;28;20031;-68
2024/04/08 03:27:21;;;;;;;4.57;1.73;;;30.40;90.70;;;;;;5043516;28;20063;-68
2024/04/08 03:29:50;;;;;;;7.63;2.50;;;29.50;92.40;;;;;;5040752;28;20026;-68
2024/04/08 03:32:18;;;;;;;6.25;2.15;;;28.60;93.20;;;;;;5041813;28;20033;-69
2024/04/08 03:34:45;;;;;;;9.40;2.33;;;27.90;94.90;;;;;;5042500;28;20021;-69
2024/04/08 03:37:12;;;;;;;9.23;2.70;;;27.20;96.50;;;;;;5043124;28;20423;-70
2024/04/08 03:39:39;;;;;;;5.05;1.98;;;26.90;97.80;;;;;;5025694;28;20029;-69
2024/04/08 03:42:07;;;;;;;10.63;2.60;;;26.70;99.50;;;;;;5023379;28;20022;-70
2024/04/08 03:44:35;;;;;;;6.78;1.85;;;26.20;99.90;;;;;;5023306;28;20037;-71
2024/04/08 03:47:02;;;;;;;7.35;1.80;;;25.80;99.90;;;;;;5023750;28;20033;-71
2024/04/08 03:49:30;;;;;;;6.78;2.20;;;25.60;99.90;;;;;;5023642;28;20739;-72
2024/04/08 03:51:57;;;;;;;6.70;2.05;;;25.60;99.90;;;;;;5021969;28;20040;-69
2024/04/08 03:54:24;;;;;;;7.63;2.13;;;25.60;99.90;;;;;;5023039;28;20029;-70
2024/04/08 03:56:51;;;;;;;8.60;2.42;;;25.70;99.90;;;;;;5023423;28;20026;-71
2024/04/08 03:59:19;;;;;;;9.77;1.90;;;25.80;99.90;;;;;;5023020;28;20081;-71
2024/04/08 04:01:46;;;;;;;6.68;2.00;;;26.30;99.90;;;;;;5023610;28;20084;-71
2024/04/08 04:04:13;;;;;;;6.45;1.67;;;27.30;99.90;;;;;;5021738;28;20021;-72
2024/04/08 04:06:40;;;;;;;8.43;2.15;;;28.10;99.00;;;;;;5026600;28;20049;-72
2024/04/08 04:09:10;;;;;;;6.15;1.77;;;29.80;95.50;;;;;;5043867;28;20480;-71
2024/04/08 04:11:38;;;;;;;6.95;2.00;;;31.60;94.10;;;;;;5019874;28;20029;-71
2024/04/08 04:14:05;;;;;;;8.05;1.60;;;33.60;89.70;;;;;;5024785;28;20026;-70
2024/04/08 04:16:32;;;;;;;7.32;2.17;;;34.20;87.00;;;;;;5026300;28;20323;-71
2024/04/08 04:19:00;;;;;;;7.05;1.70;;;35.00;85.10;;;;;;5026002;28;20104;-71
2024/04/08 04:21:27;;;;;;;6.25;1.77;;;35.80;82.60;;;;;;5027004;28;20021;-71
2024/04/08 04:23:54;;;;;;;8.23;2.00;;;35.50;80.20;;;;;;5042592;28;20049;-71
2024/04/08 04:26:21;;;;;;;6.35;1.65;;;33.70;83.40;;;;;;5025338;28;20536;-70
2024/04/08 04:28:49;;;;;;;6.93;1.98;;;33.60;84.00;;;;;;5029555;28;20061;-70
2024/04/08 04:31:16;;;;;;;5.45;1.63;;;33.10;84.70;;;;;;5032328;28;20022;-71
2024/04/08 04:33:44;;;;;;;6.32;1.88;;;32.40;85.50;;;;;;5007150;28;20105;-69
2024/04/08 04:36:11;;;;;;;7.57;1.73;;;31.70;88.40;;;;;;5022668;28;20022;-68
2024/04/08 04:38:38;;;;;;;7.60;1.95;;;30.30;90.30;;;;;;5025449;28;20105;-69
2024/04/08 04:41:07;;;;;;;5.00;1.70;;;29.90;91.70;;;;;;5036922;28;20730;-71
2024/04/08 04:43:34;;;;;;;6.55;1.70;;;30.00;91.90;;;;;;5044401;28;20025;-70
2024/04/08 04:46:03;;;;;;;9.65;2.70;;;30.40;91.20;;;;;;5038002;28;20029;-71
2024/04/08 04:48:30;;;;;;;6.03;1.88;;;30.00;92.00;;;;;;5024309;28;20036;-72
2024/04/08 04:50:58;;;;;;;4.00;1.80;;;30.30;91.50;;;;;;5026052;28;20021;-69
2024/04/08 04:53:25;;;;;;;9.73;2.45;;;31.00;91.60;;;;;;5026409;28;20026;-70
2024/04/08 04:55:56;;;;;;;7.57;1.67;;;31.60;89.40;;;;;;5025626;28;20044;-68
2024/04/08 04:58:24;;;;;;;9.20;1.88;;;32.70;87.40;;;;;;5026527;28;20044;-69
2024/04/08 05:00:51;;;;;;;7.32;2.13;;;33.80;86.40;;;;;;5033572;28;20052;-69
2024/04/08 05:03:19;;;;;;;7.38;2.00;;;33.80;83.70;;;;;;5024912;28;20974;-70
2024/04/08 05:05:57;;;;;;;10.75;1.88;;;32.50;85.70;;;;;;5025835;28;20040;-71
2024/04/08 05:08:24;;;;;;;9.65;1.83;;;31.40;88.40;;;;;;5038624;28;20104;-70
2024/04/08 05:10:52;;;;;;;8.15;1.70;;;30.50;90.20;;;;;;5037580;28;20026;-70
2024/04/08 05:13:19;;;;;;;7.68;2.08;;;29.70;91.30;;;;;;5025248;28;20025;-70
2024/04/08 05:16:00;;;;;;;9.40;1.75;;;29.00;92.40;;;;;;5025352;28;20082;-71
2024/04/08 05:18:28;;;;;;;6.95;2.10;;;28.90;92.70;;;;;;5023919;28;20029;-70
2024/04/08 05:21:00;;;;;;;25.05;2.95;;;28.60;92.70;;;;;;5016714;28;20163;-70
2024/04/08 05:23:27;;;;;;;7.88;1.60;;;28.80;93.80;;;;;;5029494;28;20048;-71
2024/04/08 05:25:55;;;;;;;8.25;2.10;;;28.90;92.80;;;;;;5029713;28;20387;-72
2024/04/08 05:28:23;;;;;;;18.05;2.60;;;29.50;91.80;;;;;;5037628;28;20028;-72
2024/04/08 05:30:51;;;;;;;7.28;1.48;;;30.20;91.90;;;;;;5035561;28;20017;-71
2024/04/08 05:33:18;;;;;;;7.18;1.95;;;30.30;90.30;;;;;;5024961;28;20083;-71
2024/04/08 05:35:46;;;;;;;8.05;1.95;;;31.10;89.60;;;;;;5024302;28;20378;-71
2024/04/08 05:38:14;;;;;;;5.35;1.60;;;31.00;90.80;;;;;;5028778;28;20021;-70
2024/04/08 05:40:42;;;;;;;3.58;1.08;;;32.60;88.10;;;;;;5023722;28;20029;-72
2024/04/08 05:43:15;;;;;;;4.72;1.20;;;33.60;86.00;;;;;;5024105;28;20485;-72
2024/04/08 05:45:43;;;;;;;6.95;1.83;;;34.00;82.90;;;;;;5022711;28;20041;-71
2024/04/08 05:48:11;;;;;;;4.85;1.40;;;33.10;82.80;;;;;;5024834;28;20108;-71
2024/04/08 05:50:38;;;;;;;9.77;1.80;;;33.70;84.20;;;;;;5027087;28;20493;-70
2024/04/08 05:53:05;;;;;;;4.97;1.50;;;34.60;82.60;;;;;;5018921;28;20041;-71
2024/04/08 05:55:33;;;;;;;4.50;1.33;;;35.00;80.20;;;;;;5025375;28;20025;-71
2024/04/08 05:58:02;;;;;;;5.45;1.42;;;35.50;80.00;;;;;;5025413;28;20024;-72
2024/04/08 06:00:30;;;;;;;3.45;1.30;;;36.30;78.90;;;;;;5022523;28;20136;-72
2024/04/08 06:02:57;;;;;;;4.82;1.38;;;36.50;76.90;;;;;;5025051;28;20026;-72
2024/04/08 06:05:27;;;;;;;6.88;1.55;;;35.40;78.60;;;;;;5024708;28;20381;-71
2024/04/08 06:07:54;;;;;;;5.07;1.38;;;34.30;78.80;;;;;;5036683;28;20036;-71
2024/04/08 06:10:26;;;;;;;5.97;2.08;;;32.90;82.40;;;;;;5044569;28;20017;-71
2024/04/08 06:12:53;;;;;;;7.85;1.77;;;31.90;84.40;;;;;;5044264;28;20029;-70
2024/04/08 06:15:20;;;;;;;8.88;2.45;;;31.40;84.90;;;;;;5044280;28;20481;-71
2024/04/08 06:17:48;;;;;;;5.88;1.67;;;30.40;87.50;;;;;;5043081;28;20120;-71
2024/04/08 06:20:15;;;;;;;6.80;1.92;;;29.70;90.60;;;;;;5044531;28;20025;-71
2024/04/08 06:22:43;;;;;;;9.25;2.15;;;29.90;90.60;;;;;;5043130;28;20049;-72
2024/04/08 06:25:11;;;;;;;4.20;1.30;;;30.70;89.10;;;;;;5044044;28;20373;-71
2024/04/08 06:27:38;;;;;;;7.50;2.38;;;31.10;89.70;;;;;;5043567;28;20098;-71
2024/04/08 06:30:06;;;;;;;5.70;1.80;;;31.60;87.00;;;;;;5042848;28;20024;-71
2024/04/08 06:32:33;;;;;;;7.40;2.10;;;30.80;87.60;;;;;;5043712;28;20025;-70
2024/04/08 06:35:00;;;;;;;9.50;2.10;;;30.00;89.70;;;;;;5043551;28;20108;-70
2024/04/08 06:37:28;;;;;;;7.25;2.45;;;28.90;90.60;;;;;;5044663;28;20025;-71
2024/04/08 06:39:55;;;;;;;6.35;1.52;;;28.00;92.50;;;;;;5042606;28;20205;-70
2024/04/08 06:42:23;;;;;;;5.65;1.42;;;27.40;92.80;;;;;;5043856;28;20017;-70
2024/04/08 06:44:51;;;;;;;6.80;2.15;;;27.10;93.50;;;;;;5043552;28;20031;-70
2024/04/08 06:47:24;;;;;;;8.27;1.95;;;27.60;93.40;;;;;;5044389;28;20032;-71
2024/04/08 06:49:51;;;;;;;5.30;1.90;;;28.80;92.40;;;;;;5043395;28;20071;-71
2024/04/08 06:52:18;;;;;;;7.30;2.00;;;29.70;91.60;;;;;;5044234;28;20094;-71
2024/04/08 06:54:45;;;;;;;5.22;1.60;;;30.10;90.40;;;;;;5033322;28;20029;-71
2024/04/08 06:57:13;;;;;;;5.22;1.63;;;29.20;90.40;;;;;;5022391;28;20112;-71
2024/04/08 06:59:40;;;;;;;9.02;1.85;;;28.20;91.80;;;;;;5029897;28;20032;-72
2024/04/08 07:02:07;;;;;;;4.78;1.83;;;27.40;93.10;;;;;;5043056;28;20391;-72
2024/04/08 07:04:35;;;;;;;5.63;2.08;;;27.00;94.60;;;;;;5022183;28;20125;-71
2024/04/08 07:07:02;;;;;;;11.88;2.17;;;26.50;95.60;;;;;;5021399;28;20084;-72
2024/04/08 07:09:29;;;;;;;4.45;1.95;;;26.10;95.90;;;;;;5024801;28;20013;-71
2024/04/08 07:11:59;;;;;;;8.52;2.50;;;25.70;97.00;;;;;;5021711;28;20425;-72
2024/04/08 07:14:27;;;;;;;8.80;2.40;;;25.30;97.80;;;;;;5022826;28;20466;-70
2024/04/08 07:16:54;;;;;;;6.32;1.50;;;24.90;99.40;;;;;;5022082;28;20037;-71
2024/04/08 07:19:22;;;;;;;7.72;2.10;;;24.50;99.90;;;;;;5022964;28;20116;-71
2024/04/08 07:21:49;;;;;;;5.90;2.15;;;24.20;99.90;;;;;;5022569;28;20025;-71
2024/04/08 07:24:16;;;;;;;6.93;1.92;;;24.00;99.90;;;;;;5021147;28;20044;-71
2024/04/08 07:26:46;;;;;;;4.90;1.88;;;23.80;99.90;;;;;;5025417;28;20842;-70
2024/04/08 07:29:14;;;;;;;9.07;2.65;;;23.60;99.90;;;;;;5020658;28;20021;-71
2024/04/08 07:31:41;;;;;;;5.82;2.80;;;23.60;99.90;;;;;;5027735;28;20018;-72
2024/04/08 07:34:08;;;;;;;11.50;2.95;;;23.40;99.90;;;;;;5021265;28;20056;-71
2024/04/08 07:36:35;;;;;;;8.95;2.30;;;23.30;99.90;;;;;;5023874;28;20021;-70
2024/04/08 07:39:03;;;;;;;8.35;2.50;;;23.20;99.90;;;;;;5023611;28;20079;-71
2024/04/08 07:41:30;;;;;;;8.55;2.88;;;23.10;99.90;;;;;;5022237;28;20017;-71
2024/04/08 07:43:58;;;;;;;9.57;2.58;;;23.00;99.90;;;;;;5023035;28;20044;-70
2024/04/08 07:46:25;;;;;;;6.03;2.20;;;22.90;99.90;;;;;;5027459;28;20057;-70
2024/04/08 07:48:53;;;;;;;10.70;3.33;;;22.80;99.90;;;;;;5026567;28;20016;-70
2024/04/08 07:51:20;;;;;;;8.07;3.25;;;22.70;99.90;;;;;;5037445;28;20056;-71
2024/04/08 07:53:48;;;;;;;6.53;2.38;;;22.70;99.90;;;;;;5033773;28;20041;-71
2024/04/08 07:56:15;;;;;;;8.27;2.40;;;22.70;99.90;;;;;;5038361;28;20037;-72
2024/04/08 07:58:43;;;;;;;9.20;3.42;;;22.50;99.90;;;;;;5028920;28;20033;-71
2024/04/08 08:01:10;;;;;;;7.70;3.60;;;22.40;99.90;;;;;;5031498;28;20685;-70
2024/04/08 08:03:38;;;;;;;10.55;4.22;;;22.30;99.90;;;;;;5028765;28;20044;-70
2024/04/08 08:06:06;;;;;;;8.88;3.25;;;22.20;99.90;;;;;;5026384;28;20159;-71
2024/04/08 08:08:33;;;;;;;11.30;4.57;;;22.30;99.90;;;;;;5030318;28;20029;-72
2024/04/08 08:11:03;;;;;;;7.35;3.78;;;22.10;99.90;;;;;;5033004;28;20022;-71
2024/04/08 08:13:31;;;;;;;12.55;4.72;;;22.10;99.90;;;;;;5038349;28;20112;-70
2024/04/08 08:15:59;;;;;;;10.23;4.45;;;22.00;99.90;;;;;;5033716;28;20036;-72
2024/04/08 08:18:27;;;;;;;12.30;6.25;;;22.00;99.90;;;;;;5041991;28;20025;-70
2024/04/08 08:20:55;;;;;;;9.88;4.15;;;21.90;99.90;;;;;;5038789;28;20098;-71
2024/04/08 08:23:22;;;;;;;9.73;3.30;;;21.90;99.90;;;;;;5037535;28;20046;-72
2024/04/08 08:25:50;;;;;;;6.85;2.85;;;21.90;99.90;;;;;;5027535;28;20065;-72
2024/04/08 08:28:17;;;;;;;8.95;3.70;;;21.80;99.90;;;;;;5039656;28;20095;-72
2024/04/08 08:30:46;;;;;;;11.73;3.67;;;21.70;99.90;;;;;;5038684;28;20040;-71
2024/04/08 08:33:14;;;;;;;10.60;4.50;;;21.70;99.90;;;;;;5023739;28;20021;-71
2024/04/08 08:35:41;;;;;;;8.43;3.58;;;21.70;99.90;;;;;;5033401;28;20033;-73
2024/04/08 08:38:09;;;;;;;9.55;3.90;;;21.60;99.90;;;;;;5030539;28;20029;-73
2024/04/08 08:40:43;;;;;;;16.73;4.40;;;21.60;99.90;;;;;;5041622;28;20032;-73
2024/04/08 08:43:11;;;;;;;15.68;6.03;;;21.60;99.90;;;;;;5034475;28;20021;-74
2024/04/08 08:45:49;;;;;;;14.27;5.45;;;21.50;99.90;;;;;;5035479;28;20041;-72
2024/04/08 08:48:16;;;;;;;14.38;5.15;;;21.50;99.90;;;;;;5028212;28;20121;-72
2024/04/08 08:50:47;;;;;;;13.23;5.30;;;21.50;99.90;;;;;;5022189;28;20033;-73
2024/04/08 08:53:15;;;;;;;10.82;4.18;;;21.40;99.90;;;;;;5028939;28;20033;-70
2024/04/08 08:55:44;;;;;;;12.13;4.70;;;21.40;99.90;;;;;;5023932;28;20072;-67
2024/04/08 08:58:14;;;;;;;14.38;5.50;;;21.40;99.90;;;;;;5027028;28;20774;-69
2024/04/08 09:00:41;;;;;;;9.55;4.60;;;21.30;99.90;;;;;;5024431;28;20026;-69
2024/04/08 09:03:18;;;;;;;12.70;5.30;;;21.30;99.90;;;;;;5037715;28;20032;-68
2024/04/08 09:05:50;;;;;;;10.00;4.60;;;21.30;99.90;;;;;;5026460;28;20056;-69
2024/04/08 09:08:17;;;;;;;10.88;4.80;;;21.30;99.90;;;;;;5023981;28;20141;-70
2024/04/08 09:10:48;;;;;;;10.82;4.07;;;21.20;99.90;;;;;;5025126;28;20044;-72
2024/04/08 09:13:23;;;;;;;10.80;4.55;;;21.20;99.90;;;;;;5026799;28;20075;-69
2024/04/08 09:15:51;;;;;;;8.80;4.28;;;21.20;99.90;;;;;;5043665;28;20036;-70
2024/04/08 09:18:19;;;;;;;9.32;4.45;;;21.20;99.90;;;;;;5044245;28;20017;-72
2024/04/08 09:20:47;;;;;;;9.00;4.85;;;21.20;99.90;;;;;;5039409;28;20045;-72
2024/04/08 09:23:14;;;;;;;11.95;5.05;;;21.20;99.90;;;;;;5024283;28;20053;-73
2024/04/08 09:25:42;;;;;;;12.18;6.30;;;21.10;99.90;;;;;;5019741;28;20026;-72
2024/04/08 09:28:11;;;;;;;9.55;6.15;;;21.10;99.90;;;;;;5021171;28;20091;-71
2024/04/08 09:30:41;;;;;;;11.32;5.28;;;21.10;99.90;;;;;;5024592;28;20737;-71
2024/04/08 09:33:11;;;;;;;13.55;5.00;;;21.10;99.90;;;;;;5022078;28;20044;-72
2024/04/08 09:35:47;;;;;;;9.93;5.07;;;21.10;99.90;;;;;;5022037;28;20698;-72
2024/04/08 09:38:15;;;;;;;8.10;4.60;;;21.10;99.90;;;;;;4990951;28;20050;-72
2024/04/08 09:40:50;;;;;;;8.60;4.25;;;21.00;99.90;;;;;;5030937;28;20013;-72
2024/04/08 09:43:20;;;;;;;7.93;3.45;;;21.00;99.90;;;;;;5033374;28;21417;-70
2024/04/08 09:45:55;;;;;;;9.20;3.55;;;21.00;99.90;;;;;;5022845;28;20033;-71
2024/04/08 09:48:30;;;;;;;9.88;3.72;;;21.00;99.90;;;;;;5021908;28;20072;-71
2024/04/08 09:51:03;;;;;;;7.82;3.30;;;21.00;99.90;;;;;;5028998;28;20024;-71
2024/04/08 09:53:33;;;;;;;10.55;3.63;;;21.00;99.90;;;;;;5002933;28;20116;-69
2024/04/08 09:56:11;;;;;;;7.25;4.20;;;21.00;99.90;;;;;;5044836;28;20033;-70
2024/04/08 09:58:42;;;;;;;7.93;3.10;;;20.90;99.90;;;;;;5038741;28;20025;-69
2024/04/08 10:01:13;;;;;;;10.73;4.20;;;20.90;99.90;;;;;;5040067;28;20127;-69
2024/04/08 10:03:51;;;;;;;11.77;3.97;;;20.80;99.90;;;;;;5018754;28;20022;-70
2024/04/08 10:06:27;;;;;;;11.77;4.68;;;20.70;99.90;;;;;;5052540;28;20045;-69
2024/04/08 10:08:57;;;;;;;14.07;4.97;;;20.80;99.90;;;;;;5023173;28;20461;-71
2024/04/08 10:11:28;;;;;;;8.55;4.53;;;20.70;99.90;;;;;;5024528;28;20022;-70
2024/04/08 10:13:55;;;;;;;12.57;3.83;;;20.70;99.90;;;;;;5023323;28;20029;-69
2024/04/08 10:16:24;;;;;;;10.35;3.70;;;20.60;99.90;;;;;;5022797;28;20026;-69
2024/04/08 10:18:58;;;;;;;8.20;4.32;;;20.60;99.90;;;;;;5023773;28;20029;-68
2024/04/08 10:21:27;;;;;;;11.82;3.80;;;20.60;99.90;;;;;;5022903;28;20021;-68
2024/04/08 10:23:55;;;;;;;10.98;4.43;;;20.60;99.90;;;;;;5031317;28;20119;-70
2024/04/08 10:26:28;;;;;;;9.65;5.00;;;20.50;99.90;;;;;;5022279;28;20060;-68
2024/04/08 10:28:55;;;;;;;12.10;5.63;;;20.50;99.90;;;;;;5023267;28;20028;-72
2024/04/08 10:31:29;;;;;;;15.98;4.97;;;20.40;99.90;;;;;;5024896;28;20035;-70
2024/04/08 10:33:56;;;;;;;11.80;4.68;;;20.50;99.90;;;;;;5030885;28;20426;-71
2024/04/08 10:36:24;;;;;;;10.00;6.28;;;20.40;99.90;;;;;;5022812;28;20025;-68
2024/04/08 10:38:51;;;;;;;10.95;4.80;;;20.50;99.90;;;;;;5013848;28;20030;-69
2024/04/08 10:41:19;;;;;;;12.63;4.60;;;20.40;99.90;;;;;;5022888;28;20382;-70
2024/04/08 10:43:47;;;;;;;10.80;4.40;;;20.40;99.90;;;;;;5023076;28;20223;-70
2024/04/08 10:46:17;;;;;;;6.63;3.90;;;20.30;99.90;;;;;;5022353;28;20045;-71
2024/04/08 10:48:45;;;;;;;14.43;4.35;;;20.30;99.90;;;;;;5022276;28;20064;-71
2024/04/08 10:51:12;;;;;;;6.78;4.22;;;20.30;99.90;;;;;;5022644;28;20036;-71
2024/04/08 10:53:43;;;;;;;11.38;5.18;;;20.30;99.90;;;;;;5034839;28;20025;-71
2024/04/08 10:56:11;;;;;;;12.68;4.85;;;20.30;99.90;;;;;;5021988;28;20029;-70
2024/04/08 10:58:38;;;;;;;13.38;5.43;;;20.20;99.90;;;;;;5023140;28;20026;-70
2024/04/08 11:01:06;;;;;;;11.50;4.90;;;20.20;99.90;;;;;;5022134;28;20037;-71
2024/04/08 11:03:33;;;;;;;10.38;5.10;;;20.20;99.90;;;;;;5022455;28;20053;-69
2024/04/08 11:06:00;;;;;;;10.98;5.03;;;20.10;99.90;;;;;;5031426;28;20043;-67
2024/04/08 11:08:28;;;;;;;8.07;4.90;;;20.10;99.90;;;;;;5032940;28;20021;-69
2024/04/08 11:10:59;;;;;;;11.70;5.30;;;20.00;99.90;;;;;;5022348;28;20028;-69
2024/04/08 11:13:28;;;;;;;10.03;5.27;;;20.00;99.90;;;;;;5022228;28;20053;-67
2024/04/08 11:15:55;;;;;;;13.07;5.63;;;20.00;99.90;;;;;;5021666;28;20041;-67
2024/04/08 11:18:23;;;;;;;12.85;5.93;;;20.00;99.90;;;;;;5027225;28;20031;-69
2024/04/08 11:20:50;;;;;;;12.13;5.28;;;20.00;99.90;;;;;;5021732;28;20439;-68
2024/04/08 11:23:19;;;;;;;10.43;5.40;;;19.90;99.90;;;;;;5022226;28;20049;-70
2024/04/08 11:25:50;;;;;;;16.83;5.60;;;19.90;99.90;;;;;;5025623;28;20024;-67
2024/04/08 11:28:18;;;;;;;11.90;5.78;;;19.80;99.90;;;;;;5041649;28;20382;-70
2024/04/08 11:30:45;;;;;;;11.50;5.15;;;19.90;99.90;;;;;;5042228;28;20139;-69
2024/04/08 11:33:12;;;;;;;12.55;6.55;;;19.80;99.90;;;;;;5022492;28;20462;-68
2024/04/08 11:35:39;;;;;;;10.82;5.38;;;19.80;99.90;;;;;;5038004;28;20133;-70
2024/04/08 11:38:13;;;;;;;10.35;5.90;;;19.80;99.90;;;;;;5041957;28;20013;-70
2024/04/08 11:40:40;;;;;;;10.65;5.57;;;19.80;99.90;;;;;;5030383;28;20029;-70
2024/04/08 11:43:07;;;;;;;11.18;5.78;;;19.80;99.90;;;;;;5020600;28;20013;-70
2024/04/08 11:45:34;;;;;;;16.92;6.20;;;19.80;99.90;;;;;;5022813;28;20066;-69
2024/04/08 11:48:02;;;;;;;13.32;5.70;;;19.70;99.90;;;;;;5021756;28;20029;-68
2024/04/08 11:50:29;;;;;;;14.27;6.55;;;19.70;99.90;;;;;;5023237;28;20693;-69
2024/04/08 11:52:56;;;;;;;12.80;5.72;;;19.80;99.90;;;;;;5021788;28;20604;-69
2024/04/08 11:55:24;;;;;;;12.25;5.53;;;19.70;99.90;;;;;;5023155;28;20033;-68
2024/04/08 11:57:51;;;;;;;10.93;6.43;;;19.70;99.90;;;;;;5022431;28;20485;-69
2024/04/08 12:00:22;;;;;;;18.67;8.05;;;19.70;99.90;;;;;;5021613;28;20048;-71
2024/04/08 12:02:50;;;;;;;13.30;6.40;;;19.60;99.90;;;;;;5021436;28;20017;-69
2024/04/08 12:05:17;;;;;;;10.05;5.80;;;19.70;99.90;;;;;;5031137;28;20442;-68
2024/04/08 12:07:45;;;;;;;9.60;5.60;;;19.60;99.90;;;;;;5041781;28;20074;-70
2024/04/08 12:10:13;;;;;;;10.65;6.30;;;19.60;99.90;;;;;;5031663;28;20486;-70
2024/04/08 12:12:40;;;;;;;11.23;5.93;;;19.50;99.90;;;;;;5022582;28;20034;-72
2024/04/08 12:15:08;;;;;;;11.48;5.60;;;19.50;99.90;;;;;;5021509;28;20037;-69
2024/04/08 12:17:35;;;;;;;14.38;7.22;;;19.50;99.90;;;;;;5037516;28;20098;-68
2024/04/08 12:20:03;;;;;;;12.85;5.68;;;19.40;99.90;;;;;;5040841;28;20025;-70
2024/04/08 12:22:31;;;;;;;11.63;5.68;;;19.40;99.90;;;;;;5024023;28;20041;-70
2024/04/08 12:24:58;;;;;;;11.80;5.22;;;19.40;99.90;;;;;;5021754;28;20124;-69
2024/04/08 12:27:28;;;;;;;13.43;6.10;;;19.40;99.90;;;;;;5025495;28;20075;-70
2024/04/08 12:29:55;;;;;;;12.63;5.28;;;19.40;99.90;;;;;;5026228;28;20018;-69
2024/04/08 12:32:22;;;;;;;10.55;5.70;;;19.30;99.90;;;;;;5025724;28;20038;-70
2024/04/08 12:34:51;;;;;;;9.27;5.30;;;19.40;99.90;;;;;;5025691;28;20022;-71
2024/04/08 12:37:19;;;;;;;9.80;5.93;;;19.30;99.90;;;;;;5038475;28;20024;-70
2024/04/08 12:39:47;;;;;;;18.95;6.38;;;19.30;99.90;;;;;;5035694;28;20021;-70
2024/04/08 12:42:14;;;;;;;14.48;7.28;;;19.30;99.90;;;;;;5025669;28;20044;-71
2024/04/08 12:44:42;;;;;;;13.13;6.50;;;19.30;99.90;;;;;;5026606;28;20037;-69
2024/04/08 12:47:09;;;;;;;16.63;6.35;;;19.20;99.90;;;;;;5025212;28;20038;-69